sensor_id;sensor_type;location;lat;lon;timestamp;P1;durP1;ratioP1;P2;durP2;ratioP2
20042;SDS011;10182;52.896;6.496;2022-07-17T00:04:37;6.70;;;2.40;;
20042;SDS011;10182;52.896;6.496;2022-07-17T00:09:40;5.00;;;2.57;;
20042;SDS011;10182;52.896;6.496;2022-07-17T00:14:42;6.43;;;2.93;;
20042;SDS011;10182;52.896;6.496;2022-07-17T00:19:44;5.27;;;2.90;;
20042;SDS011;10182;52.896;6.496;2022-07-17T00:24:47;3.43;;;2.30;;
20042;SDS011;10182;52.896;6.496;2022-07-17T00:29:49;3.83;;;2.23;;
20042;SDS011;10182;52.896;6.496;2022-07-17T00:34:51;4.47;;;2.50;;
20042;SDS011;10182;52.896;6.496;2022-07-17T00:39:54;6.63;;;2.90;;
20042;SDS011;10182;52.896;6.496;2022-07-17T00:44:55;9.17;;;3.83;;
20042;SDS011;10182;52.896;6.496;2022-07-17T00:49:57;7.40;;;3.60;;
20042;SDS011;10182;52.896;6.496;2022-07-17T00:55:00;3.57;;;2.80;;
20042;SDS011;10182;52.896;6.496;2022-07-17T01:00:02;7.27;;;2.97;;
20042;SDS011;10182;52.896;6.496;2022-07-17T01:05:09;6.83;;;3.10;;
20042;SDS011;10182;52.896;6.496;2022-07-17T01:10:12;4.87;;;3.57;;
20042;SDS011;10182;52.896;6.496;2022-07-17T01:15:16;8.17;;;3.53;;
20042;SDS011;10182;52.896;6.496;2022-07-17T01:20:18;7.63;;;3.90;;
20042;SDS011;10182;52.896;6.496;2022-07-17T01:25:21;8.00;;;3.70;;
20042;SDS011;10182;52.896;6.496;2022-07-17T01:30:24;7.43;;;4.40;;
20042;SDS011;10182;52.896;6.496;2022-07-17T01:35:25;6.10;;;3.97;;
20042;SDS011;10182;52.896;6.496;2022-07-17T01:40:28;14.77;;;4.67;;
20042;SDS011;10182;52.896;6.496;2022-07-17T01:45:30;9.77;;;4.50;;
20042;SDS011;10182;52.896;6.496;2022-07-17T01:50:32;6.17;;;4.47;;
20042;SDS011;10182;52.896;6.496;2022-07-17T01:55:35;7.20;;;4.53;;
20042;SDS011;10182;52.896;6.496;2022-07-17T02:00:36;12.97;;;4.20;;
20042;SDS011;10182;52.896;6.496;2022-07-17T02:05:38;7.17;;;4.57;;
20042;SDS011;10182;52.896;6.496;2022-07-17T02:10:41;7.60;;;4.73;;
20042;SDS011;10182;52.896;6.496;2022-07-17T02:15:43;10.93;;;4.00;;
20042;SDS011;10182;52.896;6.496;2022-07-17T02:20:45;6.93;;;4.77;;
20042;SDS011;10182;52.896;6.496;2022-07-17T02:25:51;7.77;;;5.00;;
20042;SDS011;10182;52.896;6.496;2022-07-17T02:30:52;6.13;;;4.63;;
20042;SDS011;10182;52.896;6.496;2022-07-17T02:35:54;7.33;;;4.40;;
20042;SDS011;10182;52.896;6.496;2022-07-17T02:40:57;8.00;;;5.20;;
20042;SDS011;10182;52.896;6.496;2022-07-17T02:45:59;10.83;;;4.70;;
20042;SDS011;10182;52.896;6.496;2022-07-17T02:51:01;8.57;;;4.50;;
20042;SDS011;10182;52.896;6.496;2022-07-17T02:56:04;8.83;;;4.93;;
20042;SDS011;10182;52.896;6.496;2022-07-17T03:01:07;8.57;;;4.50;;
20042;SDS011;10182;52.896;6.496;2022-07-17T03:06:09;5.90;;;3.93;;
20042;SDS011;10182;52.896;6.496;2022-07-17T03:11:12;6.63;;;4.57;;
20042;SDS011;10182;52.896;6.496;2022-07-17T03:16:14;7.37;;;4.77;;
20042;SDS011;10182;52.896;6.496;2022-07-17T03:21:16;7.50;;;4.63;;
20042;SDS011;10182;52.896;6.496;2022-07-17T03:26:19;7.07;;;4.17;;
20042;SDS011;10182;52.896;6.496;2022-07-17T03:31:20;5.80;;;4.07;;
20042;SDS011;10182;52.896;6.496;2022-07-17T03:36:22;5.90;;;4.77;;
20042;SDS011;10182;52.896;6.496;2022-07-17T03:41:25;8.10;;;4.30;;
20042;SDS011;10182;52.896;6.496;2022-07-17T03:46:27;6.37;;;4.30;;
20042;SDS011;10182;52.896;6.496;2022-07-17T03:51:28;11.57;;;5.20;;
20042;SDS011;10182;52.896;6.496;2022-07-17T03:56:31;8.00;;;5.40;;
20042;SDS011;10182;52.896;6.496;2022-07-17T04:01:33;9.00;;;4.93;;
20042;SDS011;10182;52.896;6.496;2022-07-17T04:06:35;5.67;;;4.57;;
20042;SDS011;10182;52.896;6.496;2022-07-17T04:11:38;6.97;;;5.40;;
20042;SDS011;10182;52.896;6.496;2022-07-17T04:16:39;12.73;;;5.07;;
20042;SDS011;10182;52.896;6.496;2022-07-17T04:21:41;10.53;;;5.87;;
20042;SDS011;10182;52.896;6.496;2022-07-17T04:26:44;7.53;;;4.87;;
20042;SDS011;10182;52.896;6.496;2022-07-17T04:31:46;14.80;;;5.63;;
20042;SDS011;10182;52.896;6.496;2022-07-17T04:36:47;6.40;;;5.23;;
20042;SDS011;10182;52.896;6.496;2022-07-17T04:41:51;10.00;;;6.00;;
20042;SDS011;10182;52.896;6.496;2022-07-17T04:46:53;10.17;;;5.47;;
20042;SDS011;10182;52.896;6.496;2022-07-17T04:51:56;12.03;;;5.47;;
20042;SDS011;10182;52.896;6.496;2022-07-17T04:56:59;11.20;;;5.10;;
20042;SDS011;10182;52.896;6.496;2022-07-17T05:02:01;15.30;;;5.00;;
20042;SDS011;10182;52.896;6.496;2022-07-17T05:07:02;7.87;;;4.57;;
20042;SDS011;10182;52.896;6.496;2022-07-17T05:12:06;13.47;;;4.90;;
20042;SDS011;10182;52.896;6.496;2022-07-17T05:17:07;7.83;;;4.30;;
20042;SDS011;10182;52.896;6.496;2022-07-17T05:22:09;7.13;;;3.33;;
20042;SDS011;10182;52.896;6.496;2022-07-17T05:27:12;6.03;;;3.73;;
20042;SDS011;10182;52.896;6.496;2022-07-17T05:32:14;6.83;;;4.00;;
20042;SDS011;10182;52.896;6.496;2022-07-17T05:37:15;4.70;;;3.10;;
20042;SDS011;10182;52.896;6.496;2022-07-17T05:42:19;7.13;;;3.57;;
20042;SDS011;10182;52.896;6.496;2022-07-17T05:47:20;7.30;;;3.20;;
20042;SDS011;10182;52.896;6.496;2022-07-17T05:52:22;8.17;;;3.47;;
20042;SDS011;10182;52.896;6.496;2022-07-17T05:57:25;7.63;;;3.63;;
20042;SDS011;10182;52.896;6.496;2022-07-17T06:02:27;7.07;;;3.67;;
20042;SDS011;10182;52.896;6.496;2022-07-17T06:07:29;6.87;;;3.63;;
20042;SDS011;10182;52.896;6.496;2022-07-17T06:12:32;8.87;;;3.47;;
20042;SDS011;10182;52.896;6.496;2022-07-17T06:17:33;6.13;;;3.40;;
20042;SDS011;10182;52.896;6.496;2022-07-17T06:22:35;10.13;;;3.27;;
20042;SDS011;10182;52.896;6.496;2022-07-17T06:27:39;5.63;;;3.07;;
20042;SDS011;10182;52.896;6.496;2022-07-17T06:32:41;4.13;;;2.30;;
20042;SDS011;10182;52.896;6.496;2022-07-17T06:37:43;6.83;;;2.40;;
20042;SDS011;10182;52.896;6.496;2022-07-17T06:42:46;7.80;;;2.33;;
20042;SDS011;10182;52.896;6.496;2022-07-17T06:47:48;11.83;;;2.53;;
20042;SDS011;10182;52.896;6.496;2022-07-17T06:52:50;9.17;;;2.30;;
20042;SDS011;10182;52.896;6.496;2022-07-17T06:57:53;4.77;;;1.70;;
20042;SDS011;10182;52.896;6.496;2022-07-17T07:02:54;2.60;;;1.00;;
20042;SDS011;10182;52.896;6.496;2022-07-17T07:07:56;8.00;;;1.80;;
20042;SDS011;10182;52.896;6.496;2022-07-17T07:12:59;3.73;;;1.60;;
20042;SDS011;10182;52.896;6.496;2022-07-17T07:18:01;4.60;;;1.37;;
20042;SDS011;10182;52.896;6.496;2022-07-17T07:23:03;3.93;;;1.40;;
20042;SDS011;10182;52.896;6.496;2022-07-17T07:28:06;5.17;;;1.30;;
20042;SDS011;10182;52.896;6.496;2022-07-17T07:33:08;3.03;;;1.10;;
20042;SDS011;10182;52.896;6.496;2022-07-17T07:38:09;5.70;;;1.43;;
20042;SDS011;10182;52.896;6.496;2022-07-17T07:43:13;4.63;;;1.27;;
20042;SDS011;10182;52.896;6.496;2022-07-17T07:48:14;3.20;;;0.90;;
20042;SDS011;10182;52.896;6.496;2022-07-17T07:53:16;5.30;;;1.40;;
20042;SDS011;10182;52.896;6.496;2022-07-17T07:58:19;7.83;;;1.30;;
20042;SDS011;10182;52.896;6.496;2022-07-17T08:03:21;6.57;;;1.13;;
20042;SDS011;10182;52.896;6.496;2022-07-17T08:08:22;6.57;;;1.40;;
20042;SDS011;10182;52.896;6.496;2022-07-17T08:13:25;5.30;;;1.07;;
20042;SDS011;10182;52.896;6.496;2022-07-17T08:18:27;7.60;;;1.50;;
20042;SDS011;10182;52.896;6.496;2022-07-17T08:23:29;5.30;;;1.40;;
20042;SDS011;10182;52.896;6.496;2022-07-17T08:28:32;3.00;;;0.87;;
20042;SDS011;10182;52.896;6.496;2022-07-17T08:33:33;4.97;;;1.20;;
20042;SDS011;10182;52.896;6.496;2022-07-17T08:38:35;4.73;;;1.40;;
20042;SDS011;10182;52.896;6.496;2022-07-17T08:43:38;3.27;;;1.20;;
20042;SDS011;10182;52.896;6.496;2022-07-17T08:48:40;6.47;;;1.40;;
20042;SDS011;10182;52.896;6.496;2022-07-17T08:53:42;5.90;;;1.17;;
20042;SDS011;10182;52.896;6.496;2022-07-17T08:58:46;3.93;;;1.00;;
20042;SDS011;10182;52.896;6.496;2022-07-17T09:03:54;4.60;;;1.87;;
20042;SDS011;10182;52.896;6.496;2022-07-17T09:09:01;4.30;;;1.33;;
20042;SDS011;10182;52.896;6.496;2022-07-17T09:14:06;4.83;;;1.40;;
20042;SDS011;10182;52.896;6.496;2022-07-17T09:19:07;6.20;;;1.13;;
20042;SDS011;10182;52.896;6.496;2022-07-17T09:24:09;3.97;;;1.13;;
20042;SDS011;10182;52.896;6.496;2022-07-17T09:29:12;5.33;;;1.23;;
20042;SDS011;10182;52.896;6.496;2022-07-17T09:34:16;3.00;;;1.30;;
20042;SDS011;10182;52.896;6.496;2022-07-17T09:39:18;1.87;;;0.90;;
20042;SDS011;10182;52.896;6.496;2022-07-17T09:44:21;2.80;;;1.30;;
20042;SDS011;10182;52.896;6.496;2022-07-17T09:49:22;2.87;;;1.20;;
20042;SDS011;10182;52.896;6.496;2022-07-17T09:54:26;3.77;;;1.40;;
20042;SDS011;10182;52.896;6.496;2022-07-17T09:59:31;2.90;;;1.13;;
20042;SDS011;10182;52.896;6.496;2022-07-17T10:04:38;4.77;;;1.43;;
20042;SDS011;10182;52.896;6.496;2022-07-17T10:09:41;3.00;;;1.03;;
20042;SDS011;10182;52.896;6.496;2022-07-17T10:14:45;2.07;;;1.30;;
20042;SDS011;10182;52.896;6.496;2022-07-17T10:19:49;3.13;;;1.20;;
20042;SDS011;10182;52.896;6.496;2022-07-17T10:24:52;2.30;;;1.00;;
20042;SDS011;10182;52.896;6.496;2022-07-17T10:30:00;2.13;;;1.00;;
20042;SDS011;10182;52.896;6.496;2022-07-17T10:35:04;2.57;;;1.13;;
20042;SDS011;10182;52.896;6.496;2022-07-17T10:40:10;4.53;;;1.60;;
20042;SDS011;10182;52.896;6.496;2022-07-17T10:45:15;3.20;;;1.43;;
20042;SDS011;10182;52.896;6.496;2022-07-17T10:50:19;2.83;;;1.50;;
20042;SDS011;10182;52.896;6.496;2022-07-17T10:55:22;2.73;;;1.40;;
20042;SDS011;10182;52.896;6.496;2022-07-17T11:00:25;3.40;;;1.23;;
20042;SDS011;10182;52.896;6.496;2022-07-17T11:05:27;3.87;;;1.27;;
20042;SDS011;10182;52.896;6.496;2022-07-17T11:10:29;7.10;;;1.10;;
20042;SDS011;10182;52.896;6.496;2022-07-17T11:15:36;2.30;;;1.23;;
20042;SDS011;10182;52.896;6.496;2022-07-17T11:20:49;2.37;;;1.20;;
20042;SDS011;10182;52.896;6.496;2022-07-17T11:25:52;2.83;;;1.70;;
20042;SDS011;10182;52.896;6.496;2022-07-17T11:30:57;4.30;;;1.43;;
20042;SDS011;10182;52.896;6.496;2022-07-17T11:36:00;4.60;;;1.27;;
20042;SDS011;10182;52.896;6.496;2022-07-17T11:41:01;2.97;;;1.40;;
20042;SDS011;10182;52.896;6.496;2022-07-17T11:46:04;2.10;;;1.60;;
20042;SDS011;10182;52.896;6.496;2022-07-17T11:51:06;3.30;;;1.43;;
20042;SDS011;10182;52.896;6.496;2022-07-17T11:56:08;2.83;;;1.83;;
20042;SDS011;10182;52.896;6.496;2022-07-17T12:01:21;4.07;;;1.53;;
20042;SDS011;10182;52.896;6.496;2022-07-17T12:06:24;3.33;;;1.40;;
20042;SDS011;10182;52.896;6.496;2022-07-17T12:11:26;4.40;;;1.40;;
20042;SDS011;10182;52.896;6.496;2022-07-17T12:16:30;3.63;;;1.73;;
20042;SDS011;10182;52.896;6.496;2022-07-17T12:21:32;2.53;;;1.80;;
20042;SDS011;10182;52.896;6.496;2022-07-17T12:26:34;4.40;;;2.20;;
20042;SDS011;10182;52.896;6.496;2022-07-17T12:31:38;4.17;;;1.60;;
20042;SDS011;10182;52.896;6.496;2022-07-17T12:36:39;3.63;;;1.63;;
20042;SDS011;10182;52.896;6.496;2022-07-17T12:41:41;2.77;;;1.63;;
20042;SDS011;10182;52.896;6.496;2022-07-17T12:46:44;2.53;;;1.47;;
20042;SDS011;10182;52.896;6.496;2022-07-17T12:51:46;2.97;;;1.57;;
20042;SDS011;10182;52.896;6.496;2022-07-17T12:56:48;2.00;;;1.80;;
20042;SDS011;10182;52.896;6.496;2022-07-17T13:01:51;3.23;;;2.00;;
20042;SDS011;10182;52.896;6.496;2022-07-17T13:06:53;3.03;;;2.40;;
20042;SDS011;10182;52.896;6.496;2022-07-17T13:11:54;3.93;;;2.10;;
20042;SDS011;10182;52.896;6.496;2022-07-17T13:16:57;3.93;;;2.70;;
20042;SDS011;10182;52.896;6.496;2022-07-17T13:22:00;4.03;;;2.90;;
20042;SDS011;10182;52.896;6.496;2022-07-17T13:27:03;3.90;;;2.40;;
20042;SDS011;10182;52.896;6.496;2022-07-17T13:32:06;4.00;;;2.47;;
20042;SDS011;10182;52.896;6.496;2022-07-17T13:37:08;5.63;;;3.03;;
20042;SDS011;10182;52.896;6.496;2022-07-17T13:42:10;4.03;;;2.00;;
20042;SDS011;10182;52.896;6.496;2022-07-17T13:47:13;3.30;;;2.57;;
20042;SDS011;10182;52.896;6.496;2022-07-17T13:52:15;4.77;;;2.60;;
20042;SDS011;10182;52.896;6.496;2022-07-17T13:57:16;5.23;;;2.70;;
20042;SDS011;10182;52.896;6.496;2022-07-17T14:02:19;4.13;;;2.50;;
20042;SDS011;10182;52.896;6.496;2022-07-17T14:07:21;4.53;;;2.87;;
20042;SDS011;10182;52.896;6.496;2022-07-17T14:12:23;3.93;;;2.50;;
20042;SDS011;10182;52.896;6.496;2022-07-17T14:17:26;3.70;;;3.07;;
20042;SDS011;10182;52.896;6.496;2022-07-17T14:22:28;2.87;;;2.57;;
20042;SDS011;10182;52.896;6.496;2022-07-17T14:27:29;4.07;;;2.80;;
20042;SDS011;10182;52.896;6.496;2022-07-17T14:32:32;4.00;;;3.00;;
20042;SDS011;10182;52.896;6.496;2022-07-17T14:37:34;3.80;;;2.77;;
20042;SDS011;10182;52.896;6.496;2022-07-17T14:42:36;7.83;;;2.60;;
20042;SDS011;10182;52.896;6.496;2022-07-17T14:47:39;4.00;;;2.80;;
20042;SDS011;10182;52.896;6.496;2022-07-17T14:52:41;3.37;;;2.60;;
20042;SDS011;10182;52.896;6.496;2022-07-17T14:57:42;3.93;;;2.80;;
20042;SDS011;10182;52.896;6.496;2022-07-17T15:02:45;6.43;;;2.97;;
20042;SDS011;10182;52.896;6.496;2022-07-17T15:07:47;3.00;;;2.40;;
20042;SDS011;10182;52.896;6.496;2022-07-17T15:12:49;5.33;;;3.13;;
20042;SDS011;10182;52.896;6.496;2022-07-17T15:17:52;4.17;;;2.33;;
20042;SDS011;10182;52.896;6.496;2022-07-17T15:22:53;3.43;;;2.50;;
20042;SDS011;10182;52.896;6.496;2022-07-17T15:27:55;2.40;;;2.20;;
20042;SDS011;10182;52.896;6.496;2022-07-17T15:32:58;3.40;;;2.27;;
20042;SDS011;10182;52.896;6.496;2022-07-17T15:38:00;4.73;;;2.67;;
20042;SDS011;10182;52.896;6.496;2022-07-17T15:43:02;3.83;;;2.57;;
20042;SDS011;10182;52.896;6.496;2022-07-17T15:48:05;5.17;;;2.70;;
20042;SDS011;10182;52.896;6.496;2022-07-17T15:53:07;5.13;;;2.93;;
20042;SDS011;10182;52.896;6.496;2022-07-17T15:58:09;3.10;;;2.60;;
20042;SDS011;10182;52.896;6.496;2022-07-17T16:03:12;4.90;;;2.57;;
20042;SDS011;10182;52.896;6.496;2022-07-17T16:08:13;4.37;;;2.37;;
20042;SDS011;10182;52.896;6.496;2022-07-17T16:13:15;5.23;;;3.13;;
20042;SDS011;10182;52.896;6.496;2022-07-17T16:18:18;3.87;;;2.90;;
20042;SDS011;10182;52.896;6.496;2022-07-17T16:23:19;5.37;;;3.20;;
20042;SDS011;10182;52.896;6.496;2022-07-17T16:28:23;4.57;;;3.13;;
20042;SDS011;10182;52.896;6.496;2022-07-17T16:33:26;5.17;;;2.73;;
20042;SDS011;10182;52.896;6.496;2022-07-17T16:38:28;4.63;;;2.90;;
20042;SDS011;10182;52.896;6.496;2022-07-17T16:43:29;5.30;;;3.40;;
20042;SDS011;10182;52.896;6.496;2022-07-17T16:48:35;3.83;;;2.83;;
20042;SDS011;10182;52.896;6.496;2022-07-17T16:53:36;3.47;;;2.97;;
20042;SDS011;10182;52.896;6.496;2022-07-17T16:58:38;4.00;;;3.00;;
20042;SDS011;10182;52.896;6.496;2022-07-17T17:03:41;4.07;;;2.90;;
20042;SDS011;10182;52.896;6.496;2022-07-17T17:08:43;4.30;;;2.90;;
20042;SDS011;10182;52.896;6.496;2022-07-17T17:13:45;4.50;;;2.70;;
20042;SDS011;10182;52.896;6.496;2022-07-17T17:18:48;5.47;;;3.30;;
20042;SDS011;10182;52.896;6.496;2022-07-17T17:23:49;6.07;;;2.80;;
20042;SDS011;10182;52.896;6.496;2022-07-17T17:28:52;5.27;;;2.83;;
20042;SDS011;10182;52.896;6.496;2022-07-17T17:33:55;3.63;;;3.07;;
20042;SDS011;10182;52.896;6.496;2022-07-17T17:38:57;3.80;;;3.17;;
20042;SDS011;10182;52.896;6.496;2022-07-17T17:43:59;3.03;;;2.73;;
20042;SDS011;10182;52.896;6.496;2022-07-17T17:49:02;4.80;;;3.20;;
20042;SDS011;10182;52.896;6.496;2022-07-17T17:54:04;5.77;;;3.63;;
20042;SDS011;10182;52.896;6.496;2022-07-17T17:59:05;5.50;;;3.23;;
20042;SDS011;10182;52.896;6.496;2022-07-17T18:04:09;3.63;;;2.70;;
20042;SDS011;10182;52.896;6.496;2022-07-17T18:09:10;4.50;;;3.47;;
20042;SDS011;10182;52.896;6.496;2022-07-17T18:14:12;6.50;;;3.13;;
20042;SDS011;10182;52.896;6.496;2022-07-17T18:19:16;3.40;;;3.10;;
20042;SDS011;10182;52.896;6.496;2022-07-17T18:24:17;5.13;;;3.27;;
20042;SDS011;10182;52.896;6.496;2022-07-17T18:29:19;4.60;;;3.00;;
20042;SDS011;10182;52.896;6.496;2022-07-17T18:34:24;4.43;;;3.03;;
20042;SDS011;10182;52.896;6.496;2022-07-17T18:39:25;4.63;;;3.23;;
20042;SDS011;10182;52.896;6.496;2022-07-17T18:44:27;4.77;;;4.00;;
20042;SDS011;10182;52.896;6.496;2022-07-17T18:49:30;5.97;;;3.50;;
20042;SDS011;10182;52.896;6.496;2022-07-17T18:54:32;5.70;;;3.70;;
20042;SDS011;10182;52.896;6.496;2022-07-17T18:59:34;6.77;;;4.07;;
20042;SDS011;10182;52.896;6.496;2022-07-17T19:04:37;4.43;;;3.30;;
20042;SDS011;10182;52.896;6.496;2022-07-17T19:09:39;6.57;;;4.20;;
20042;SDS011;10182;52.896;6.496;2022-07-17T19:14:43;6.33;;;3.60;;
20042;SDS011;10182;52.896;6.496;2022-07-17T19:19:47;4.73;;;3.67;;
20042;SDS011;10182;52.896;6.496;2022-07-17T19:24:48;7.90;;;4.40;;
20042;SDS011;10182;52.896;6.496;2022-07-17T19:29:50;4.90;;;3.87;;
20042;SDS011;10182;52.896;6.496;2022-07-17T19:34:53;10.00;;;4.10;;
20042;SDS011;10182;52.896;6.496;2022-07-17T19:39:55;10.87;;;4.30;;
20042;SDS011;10182;52.896;6.496;2022-07-17T19:44:57;5.03;;;3.77;;
20042;SDS011;10182;52.896;6.496;2022-07-17T19:50:00;7.10;;;3.83;;
20042;SDS011;10182;52.896;6.496;2022-07-17T19:55:02;7.23;;;4.37;;
20042;SDS011;10182;52.896;6.496;2022-07-17T20:00:05;5.10;;;3.87;;
20042;SDS011;10182;52.896;6.496;2022-07-17T20:05:09;11.03;;;4.00;;
20042;SDS011;10182;52.896;6.496;2022-07-17T20:10:11;4.80;;;4.27;;
20042;SDS011;10182;52.896;6.496;2022-07-17T20:15:12;6.13;;;4.53;;
20042;SDS011;10182;52.896;6.496;2022-07-17T20:20:15;7.77;;;4.77;;
20042;SDS011;10182;52.896;6.496;2022-07-17T20:25:18;7.00;;;4.77;;
20042;SDS011;10182;52.896;6.496;2022-07-17T20:30:19;9.77;;;4.83;;
20042;SDS011;10182;52.896;6.496;2022-07-17T20:35:23;9.13;;;5.07;;
20042;SDS011;10182;52.896;6.496;2022-07-17T20:40:25;7.23;;;5.00;;
20042;SDS011;10182;52.896;6.496;2022-07-17T20:45:26;6.87;;;4.57;;
20042;SDS011;10182;52.896;6.496;2022-07-17T20:50:30;6.03;;;5.07;;
20042;SDS011;10182;52.896;6.496;2022-07-17T20:55:32;9.83;;;6.10;;
20042;SDS011;10182;52.896;6.496;2022-07-17T21:00:37;14.67;;;5.40;;
20042;SDS011;10182;52.896;6.496;2022-07-17T21:05:41;10.00;;;5.53;;
20042;SDS011;10182;52.896;6.496;2022-07-17T21:10:43;8.23;;;5.83;;
20042;SDS011;10182;52.896;6.496;2022-07-17T21:15:45;9.17;;;5.90;;
20042;SDS011;10182;52.896;6.496;2022-07-17T21:20:48;9.50;;;6.23;;
20042;SDS011;10182;52.896;6.496;2022-07-17T21:25:50;8.43;;;5.93;;
20042;SDS011;10182;52.896;6.496;2022-07-17T21:30:51;8.40;;;5.50;;
20042;SDS011;10182;52.896;6.496;2022-07-17T21:35:55;7.57;;;5.40;;
20042;SDS011;10182;52.896;6.496;2022-07-17T21:40:56;7.93;;;5.60;;
20042;SDS011;10182;52.896;6.496;2022-07-17T21:46:02;11.07;;;4.90;;
20042;SDS011;10182;52.896;6.496;2022-07-17T21:51:06;6.43;;;5.43;;
20042;SDS011;10182;52.896;6.496;2022-07-17T21:56:08;9.23;;;6.43;;
20042;SDS011;10182;52.896;6.496;2022-07-17T22:01:10;8.37;;;5.53;;
20042;SDS011;10182;52.896;6.496;2022-07-17T22:06:14;6.80;;;5.60;;
20042;SDS011;10182;52.896;6.496;2022-07-17T22:11:16;8.90;;;5.40;;
20042;SDS011;10182;52.896;6.496;2022-07-17T22:16:18;6.23;;;5.57;;
20042;SDS011;10182;52.896;6.496;2022-07-17T22:21:22;11.00;;;6.30;;
20042;SDS011;10182;52.896;6.496;2022-07-17T22:26:26;7.33;;;5.90;;
20042;SDS011;10182;52.896;6.496;2022-07-17T22:31:31;6.60;;;5.87;;
20042;SDS011;10182;52.896;6.496;2022-07-17T22:36:34;9.47;;;6.17;;
20042;SDS011;10182;52.896;6.496;2022-07-17T22:41:36;9.87;;;6.87;;
20042;SDS011;10182;52.896;6.496;2022-07-17T22:46:37;8.77;;;6.83;;
20042;SDS011;10182;52.896;6.496;2022-07-17T22:51:41;8.03;;;6.03;;
20042;SDS011;10182;52.896;6.496;2022-07-17T22:56:42;10.57;;;6.27;;
20042;SDS011;10182;52.896;6.496;2022-07-17T23:01:44;8.27;;;6.50;;
20042;SDS011;10182;52.896;6.496;2022-07-17T23:06:48;7.20;;;5.63;;
20042;SDS011;10182;52.896;6.496;2022-07-17T23:11:50;8.27;;;6.07;;
20042;SDS011;10182;52.896;6.496;2022-07-17T23:16:52;7.97;;;6.53;;
20042;SDS011;10182;52.896;6.496;2022-07-17T23:21:55;8.27;;;6.00;;
20042;SDS011;10182;52.896;6.496;2022-07-17T23:26:57;9.17;;;6.27;;
20042;SDS011;10182;52.896;6.496;2022-07-17T23:31:58;9.93;;;6.70;;
20042;SDS011;10182;52.896;6.496;2022-07-17T23:37:22;10.33;;;7.30;;
20042;SDS011;10182;52.896;6.496;2022-07-17T23:42:24;11.43;;;6.50;;
20042;SDS011;10182;52.896;6.496;2022-07-17T23:47:26;8.40;;;6.73;;
20042;SDS011;10182;52.896;6.496;2022-07-17T23:52:29;9.53;;;7.13;;
20042;SDS011;10182;52.896;6.496;2022-07-17T23:57:31;10.47;;;7.03;;
